Latest Weather Observations for Ulladulla

IDN60801

Issued at 2:32 pm EST Thursday 28 May 2020 (issued every 10 minutes, with the page automatically refreshed every 10 minutes)

About weather observations | Map of weather stations | Latest weather observations for NSW | Other Formats
Station Details ID: 069138 Name: ULLADULLA AWS Lat: -35.36 Lon: 150.48 Height: 35.7 m
Data from the previous 72 hours. | See also: Recent months at Ulladulla
Date/Time
EST
Temp
°C
App
Temp
°C
Dew
Point
°C
Rel
Hum
%
Delta-T
°C
Wind Press
QNH
hPa
Press
MSL
hPa
Rain since
9am
mm
Dir  Spd
km/h
Gust
km/h
Spd
kts
Gust
kts
28/02:30pm 17.1 12.3 9.0 59 4.2 S 24 30 13 16 1020.0 1020.0 -
28/02:00pm 17.4 12.0 8.0 54 4.8 S 26 32 14 17 1019.9 1019.9 -
28/01:30pm 18.1 14.4 8.1 52 5.1 S 17 24 9 13 1019.8 1019.8 -
28/01:00pm 18.8 16.9 10.4 58 4.5 SSE 11 17 6 9 1019.9 1019.9 -
28/12:30pm 18.3 15.7 9.4 56 4.7 SSE 13 17 7 9 1020.0 1020.0 -
28/12:00pm 18.3 16.2 9.9 58 4.4 S 11 15 6 8 1020.2 1020.2 -
28/11:30am 18.0 16.8 10.4 61 4.1 S 7 9 4 5 1020.4 1020.4 0.0
28/11:00am 17.4 16.2 9.6 60 4.1 S 6 9 3 5 1020.7 1020.7 0.0
28/10:30am 17.4 16.2 9.6 60 4.1 SSW 6 9 3 5 1020.9 1020.9 0.0
28/10:00am 16.1 14.8 9.1 63 3.6 SSE 6 7 3 4 1021.1 1021.1 0.0
28/09:30am 15.7 14.8 9.4 66 3.3 SSE 4 6 2 3 1021.0 1021.0 0.0
28/09:00am 14.1 13.2 9.3 73 2.4 S 4 6 2 3 1020.8 1020.8 0.0
28/08:30am 14.6 14.1 9.4 71 2.7 SW 2 6 1 3 1020.7 1020.7 0.0
28/08:00am 15.3 15.5 10.5 73 2.5 CALM 0 0 0 0 1020.4 1020.4 0.0
28/07:30am 12.8 11.6 8.1 73 2.3 WSW 4 7 2 4 1020.1 1020.1 0.0
28/07:00am 12.0 10.3 7.7 75 2.1 WNW 6 9 3 5 1019.8 1019.8 0.0
28/06:30am 11.5 9.8 7.6 77 1.9 W 6 7 3 4 1019.7 1019.7 0.0
28/06:00am 11.4 9.7 7.5 77 1.9 W 6 7 3 4 1019.4 1019.4 0.0
28/05:30am 11.7 10.8 7.6 76 2.0 WNW 2 4 1 2 1019.2 1019.2 0.0
28/05:00am 12.1 11.7 8.2 77 1.9 CALM 0 0 0 0 1019.0 1019.0 0.0
28/04:30am 11.9 10.7 8.2 78 1.8 WNW 4 7 2 4 1019.2 1019.2 0.0
28/04:00am 12.1 10.7 8.9 81 1.6 W 6 7 3 4 1019.2 1019.2 0.0
28/03:30am 11.6 11.3 8.8 83 1.4 CALM 0 2 0 1 1019.1 1019.1 0.0
28/03:00am 11.6 11.0 9.0 84 1.3 WNW 2 2 1 1 1019.0 1019.0 0.0
28/02:30am 11.7 11.2 9.4 86 1.2 WNW 2 2 1 1 1019.3 1019.3 0.0
28/02:00am 12.5 12.7 10.4 87 1.1 CALM 0 4 0 2 1019.4 1019.4 0.0
28/01:30am 12.2 11.4 9.8 85 1.2 SSW 4 4 2 2 1019.3 1019.3 0.0
28/01:00am 12.5 12.1 9.9 84 1.3 WNW 2 4 1 2 1019.6 1019.6 0.0
28/12:30am 12.9 12.0 10.6 86 1.2 NNW 6 9 3 5 1019.6 1019.6 0.0
28/12:00am 12.8 12.3 10.7 87 1.1 NW 4 6 2 3 1019.7 1019.7 0.0
 
Date/Time
EST
Temp
°C
App
Temp
°C
Dew
Point
°C
Rel
Hum
%
Delta-T
°C
Wind Press
QNH
hPa
Press
MSL
hPa
Rain since
9am
mm
Dir  Spd
km/h
Gust
km/h
Spd
kts
Gust
kts
27/11:30pm 12.9 12.4 10.8 87 1.1 NNW 4 6 2 3 1019.7 1019.7 0.0
27/11:00pm 12.9 12.3 10.4 85 1.3 NNW 4 6 2 3 1020.0 1020.0 0.0
27/10:30pm 13.0 12.3 10.2 83 1.4 NNW 4 6 2 3 1020.4 1020.4 0.0
27/10:00pm 13.3 12.3 10.3 82 1.6 NNW 6 9 3 5 1020.4 1020.4 0.0
27/09:30pm 13.4 12.4 10.2 81 1.7 NNW 6 7 3 4 1020.4 1020.4 0.0
27/09:00pm 13.4 12.4 10.2 81 1.7 NNW 6 7 3 4 1020.4 1020.4 0.0
27/08:30pm 13.8 13.2 10.4 80 1.8 NNW 4 7 2 4 1020.3 1020.3 0.0
27/08:00pm 14.0 13.0 10.4 79 1.9 NW 6 9 3 5 1020.5 1020.5 0.0
27/07:30pm 13.9 12.8 10.1 78 2.0 NW 6 7 3 4 1020.3 1020.3 0.0
27/07:00pm 14.2 13.2 10.4 78 2.0 NW 6 6 3 3 1020.3 1020.3 0.0
27/06:30pm 13.9 14.0 10.1 78 2.0 CALM 0 0 0 0 1020.0 1020.0 0.0
27/06:00pm 14.2 14.3 10.0 76 2.2 CALM 0 2 0 1 1020.2 1020.2 0.0
27/05:30pm 14.8 14.9 10.2 74 2.4 CALM 0 4 0 2 1020.1 1020.1 0.0
27/05:00pm 15.4 15.2 10.4 72 2.6 NNE 2 6 1 3 1020.0 1020.0 0.0
27/04:30pm 15.7 15.5 10.5 71 2.8 NE 2 4 1 2 1019.9 1019.9 0.0
27/04:00pm 15.8 15.9 10.3 70 2.9 CALM 0 0 0 0 1019.8 1019.8 0.0
27/03:30pm 16.1 15.5 10.4 69 3.0 NE 4 6 2 3 1019.7 1019.7 0.0
27/03:00pm 16.2 15.9 10.1 67 3.2 ENE 2 6 1 3 1020.0 1020.0 0.0
27/02:30pm 16.5 15.9 10.4 67 3.2 ESE 4 7 2 4 1020.0 1020.0 0.0
27/02:00pm 16.8 15.8 10.2 65 3.5 SSE 6 9 3 5 1020.2 1020.2 0.0
27/01:30pm 16.3 15.3 10.2 67 3.2 SSE 6 9 3 5 1020.6 1020.6 0.0
27/01:00pm 16.9 15.8 10.5 66 3.4 SSE 7 9 4 5 1021.0 1021.0 0.0
27/12:30pm 16.9 15.8 10.5 66 3.4 S 7 11 4 6 1021.3 1021.3 0.0
27/12:00pm 16.4 15.2 10.3 67 3.2 S 7 9 4 5 1021.7 1021.7 0.0
27/11:30am 16.4 15.2 10.3 67 3.2 S 7 11 4 6 1022.1 1022.1 0.0
27/11:00am 15.9 14.6 10.0 68 3.1 S 7 11 4 6 1022.4 1022.4 0.0
27/10:30am 16.7 15.4 10.1 65 3.5 SSW 7 11 4 6 1022.9 1022.9 0.0
27/10:00am 16.0 14.6 9.4 65 3.4 SSW 7 9 4 5 1023.1 1023.1 0.0
27/09:30am 16.0 14.8 9.4 65 3.4 SSW 6 9 3 5 1023.1 1023.1 0.0
27/09:00am 15.3 14.2 10.1 71 2.7 WSW 6 7 3 4 1023.1 1023.1 1.8
27/08:30am 14.2 13.0 9.6 74 2.4 SW 6 9 3 5 1023.3 1023.3 1.8
27/08:00am 13.6 12.8 9.5 76 2.1 SW 4 7 2 4 1023.1 1023.1 1.8
27/07:30am 13.3 12.1 9.5 78 1.9 SW 6 7 3 4 1023.2 1023.2 1.8
27/07:00am 13.1 11.9 9.5 79 1.8 SW 6 7 3 4 1023.1 1023.1 1.8
27/06:30am 12.6 11.2 9.4 81 1.6 WSW 7 11 4 6 1022.9 1022.9 1.8
27/06:00am 12.5 11.1 9.5 82 1.5 WSW 7 11 4 6 1022.6 1022.6 1.8
27/05:30am 12.6 11.2 9.6 82 1.5 WSW 7 9 4 5 1022.6 1022.6 1.8
27/05:00am 12.7 11.3 9.7 82 1.5 W 7 11 4 6 1022.6 1022.6 1.8
27/04:30am 12.6 11.3 9.8 83 1.4 SW 7 13 4 7 1022.6 1022.6 1.8
27/04:00am 12.6 10.9 10.0 84 1.3 SW 9 15 5 8 1022.6 1022.6 1.8
27/03:30am 12.6 10.5 9.8 83 1.4 WSW 11 17 6 9 1023.0 1023.0 1.8
27/03:00am 13.0 10.6 10.0 82 1.5 SW 13 19 7 10 1023.1 1023.1 1.8
27/02:30am 13.2 10.9 10.4 83 1.5 WSW 13 19 7 10 1023.6 1023.6 1.8
27/02:00am 13.1 11.6 10.5 84 1.3 WSW 9 15 5 8 1023.8 1023.8 1.8
27/01:30am 13.1 12.5 10.3 83 1.5 WSW 4 7 2 4 1024.1 1024.1 1.8
27/01:00am 13.1 11.9 10.3 83 1.4 SW 7 13 4 7 1024.1 1024.1 1.8
27/12:30am 13.2 11.5 10.0 81 1.7 WSW 9 17 5 9 1024.1 1024.1 1.8
27/12:00am 13.4 11.7 9.8 79 1.8 WSW 9 13 5 7 1024.4 1024.4 1.8
 
Date/Time
EST
Temp
°C
App
Temp
°C
Dew
Point
°C
Rel
Hum
%
Delta-T
°C
Wind Press
QNH
hPa
Press
MSL
hPa
Rain since
9am
mm
Dir  Spd
km/h
Gust
km/h
Spd
kts
Gust
kts
26/11:30pm 13.5 11.4 9.6 77 2.0 WSW 11 19 6 10 1024.4 1024.4 1.8
26/11:00pm 14.2 12.1 9.6 74 2.4 WSW 11 17 6 9 1024.6 1024.6 1.8
26/10:30pm 15.6 11.9 10.2 70 2.8 S 20 24 11 13 1024.2 1024.2 1.8
26/10:00pm 15.6 11.7 9.5 67 3.1 S 20 26 11 14 1024.2 1024.2 1.8
26/09:30pm 15.8 13.1 10.3 70 2.9 S 15 22 8 12 1024.2 1024.2 1.8
26/09:00pm 15.6 11.4 9.9 69 3.0 SSE 22 32 12 17 1024.4 1024.4 1.8
26/08:30pm 15.8 12.0 9.2 65 3.4 SSE 19 30 10 16 1024.3 1024.3 1.8
26/08:00pm 15.9 12.8 10.2 69 3.0 SSE 17 28 9 15 1024.4 1024.4 1.8
26/07:30pm 16.3 13.0 11.0 71 2.8 S 19 30 10 16 1024.2 1024.2 1.8
26/07:00pm 16.5 13.0 10.8 69 3.0 S 20 28 11 15 1024.2 1024.2 1.8
26/06:30pm 16.5 13.8 10.4 67 3.2 S 15 22 8 12 1024.0 1024.0 1.8
26/06:00pm 16.4 13.8 10.7 69 3.0 S 15 22 8 12 1023.8 1023.8 1.8
26/05:30pm 16.3 14.5 10.8 70 2.9 SSE 11 19 6 10 1023.7 1023.7 1.8
26/05:00pm 16.0 14.4 8.7 62 3.7 SE 7 11 4 6 1023.7 1023.7 1.8
26/04:30pm 16.0 13.5 11.0 72 2.7 SE 15 26 8 14 1023.4 1023.4 1.8
26/04:00pm 16.2 12.3 12.0 76 2.3 S 24 32 13 17 1023.3 1023.3 1.8
26/03:30pm 16.3 12.3 11.9 75 2.4 S 24 33 13 18 1023.1 1023.1 1.8
26/03:00pm 16.4 11.6 11.8 74 2.5 S 28 35 15 19 1023.0 1023.0 1.8
26/02:30pm 16.2 11.8 11.8 75 2.4 S 26 41 14 22 1023.0 1023.0 1.8
26/02:00pm 16.1 11.9 12.5 79 2.0 S 26 39 14 21 1023.4 1023.4 1.8
26/01:30pm 15.6 13.1 14.1 91 0.8 SSW 20 28 11 15 1023.5 1023.5 1.8
26/01:03pm 15.0 10.9 13.7 92 0.7 S 28 46 15 25 1023.8 1023.8 1.8
26/01:00pm 15.1 11.1 14.0 93 0.6 S 28 41 15 22 1024.0 1024.0 1.6
26/12:30pm 15.8 12.2 12.9 83 1.6 S 24 35 13 19 1024.2 1024.2 0.2
26/12:00pm 15.1 12.5 13.1 88 1.1 SSW 19 28 10 15 1024.4 1024.4 0.2
26/11:30am 15.4 12.4 12.7 84 1.5 SSW 20 33 11 18 1024.7 1024.7 0.0
26/11:00am 15.3 12.9 14.3 94 0.6 SSW 20 32 11 17 1025.1 1025.1 0.0
26/10:30am 14.2 12.1 13.7 97 0.3 SW 17 28 9 15 1025.2 1025.2 0.0
26/10:00am 13.9 11.4 13.4 97 0.3 SSW 19 28 10 15 1025.1 1025.1 0.0
26/09:30am 13.4 10.8 13.1 98 0.2 SW 19 32 10 17 1025.2 1025.2 0.0
26/09:00am 12.8 10.0 12.6 99 0.1 SW 19 28 10 15 1024.9 1024.9 13.8
26/08:30am 12.7 9.9 12.5 99 0.1 SW 19 28 10 15 1024.7 1024.7 13.8
26/08:00am 12.3 10.1 12.1 99 0.1 SW 15 28 8 15 1024.4 1024.4 13.8
26/07:30am 11.8 8.5 11.5 98 0.2 SW 20 35 11 19 1024.3 1024.3 10.4
26/07:00am 11.8 8.5 11.5 98 0.2 SW 20 32 11 17 1023.8 1023.8 6.4
26/06:30am 11.8 8.5 11.5 98 0.2 SW 20 32 11 17 1023.5 1023.5 5.4
26/06:00am 11.6 8.2 11.3 98 0.2 SW 20 32 11 17 1023.3 1023.3 4.6
26/05:30am 11.6 8.2 11.3 98 0.2 SW 20 32 11 17 1023.2 1023.2 4.2
26/05:00am 11.5 8.0 11.0 97 0.3 SW 20 35 11 19 1022.9 1022.9 4.0
26/04:30am 11.5 7.7 11.0 97 0.3 SW 22 35 12 19 1022.8 1022.8 3.6
26/04:00am 11.6 8.2 11.1 97 0.3 SW 20 30 11 16 1023.0 1023.0 3.2
26/03:30am 11.4 8.1 10.8 96 0.3 SW 19 28 10 15 1023.1 1023.1 3.0
26/03:00am 11.4 7.5 10.8 96 0.3 SW 22 37 12 20 1023.2 1023.2 2.8
26/02:30am 11.5 7.9 10.7 95 0.4 SW 20 33 11 18 1023.2 1023.2 2.8
26/02:00am 11.9 8.6 10.8 93 0.6 SW 19 32 10 17 1023.4 1023.4 2.2
26/01:33am 13.4 7.7 11.1 86 1.2 SSW 32 52 17 28 1023.2 1023.2 2.0
26/01:30am 13.6 7.7 11.3 86 1.2 SSW 33 52 18 28 1023.3 1023.3 2.0
26/01:05am 14.2 7.5 11.0 81 1.7 S 37 56 20 30 1023.2 1023.2 2.0
26/01:00am 14.4 7.4 11.2 81 1.7 S 39 56 21 30 1023.1 1023.1 2.0
26/12:30am 14.1 7.0 10.9 81 1.7 S 39 63 21 34 1023.2 1023.2 2.0
26/12:00am 13.5 7.7 10.7 83 1.5 S 32 54 17 29 1023.3 1023.3 2.0
 
Date/Time
EST
Temp
°C
App
Temp
°C
Dew
Point
°C
Rel
Hum
%
Delta-T
°C
Wind Press
QNH
hPa
Press
MSL
hPa
Rain since
9am
mm
Dir  Spd
km/h
Gust
km/h
Spd
kts
Gust
kts
25/11:30pm 13.6 5.9 10.2 80 1.8 S 41 61 22 33 1023.1 1023.1 1.8
25/11:19pm 14.2 9.0 10.4 78 2.0 SSW 28 54 15 29 1023.1 1023.1 1.8
25/11:00pm 13.6 8.6 9.6 77 2.0 SSW 26 37 14 20 1023.1 1023.1 1.8
25/10:30pm 12.9 9.1 9.7 81 1.6 SW 20 32 11 17 1023.0 1023.0 1.8
25/10:00pm 12.3 8.8 11.0 92 0.7 SW 20 33 11 18 1022.9 1022.9 1.8
25/09:30pm 11.9 8.7 11.3 96 0.3 SW 19 32 10 17 1023.1 1023.1 1.8
25/09:00pm 11.9 8.1 11.3 96 0.3 SW 22 35 12 19 1023.1 1023.1 1.8
25/08:30pm 12.3 9.2 11.7 96 0.3 SW 19 28 10 15 1022.9 1022.9 1.6
25/08:00pm 13.2 7.9 12.6 96 0.3 SSW 32 52 17 28 1022.4 1022.4 1.6
25/07:54pm 13.1 7.6 12.5 96 0.3 SSW 33 52 18 28 1022.3 1022.3 1.6
25/07:30pm 13.8 8.7 13.2 96 0.3 SSW 32 48 17 26 1022.0 1022.0 1.4
25/07:00pm 13.6 7.4 12.8 95 0.4 S 37 57 20 31 1021.7 1021.7 1.2
25/06:31pm 13.7 6.8 12.8 94 0.5 S 41 61 22 33 1021.5 1021.5 1.0
25/06:30pm 13.6 6.2 12.5 93 0.6 S 43 61 23 33 1021.5 1021.5 1.0
25/06:03pm 14.3 6.4 12.7 90 0.9 S 46 65 25 35 1021.0 1021.0 1.0
25/06:00pm 14.2 6.2 12.4 89 1.0 S 46 65 25 35 1021.0 1021.0 1.0
25/05:36pm 13.8 7.3 11.8 88 1.1 S 37 63 20 34 1020.8 1020.8 1.0
25/05:30pm 14.0 7.8 12.7 92 0.7 S 37 56 20 30 1020.8 1020.8 1.0
25/05:00pm 13.7 6.2 12.6 93 0.6 S 44 65 24 35 1020.6 1020.6 1.0
25/04:32pm 13.9 6.1 13.0 94 0.5 S 46 67 25 36 1020.3 1020.3 1.0
25/04:30pm 14.1 6.0 13.3 95 0.4 S 48 67 26 36 1020.2 1020.2 1.0
25/04:00pm 14.0 5.1 13.1 94 0.5 S 52 69 28 37 1020.2 1020.2 0.8
25/03:54pm 14.1 6.3 13.1 94 0.6 S 46 69 25 37 1020.1 1020.1 0.8
25/03:30pm 13.9 8.2 13.1 95 0.4 SSW 35 54 19 29 1020.3 1020.3 0.6
25/03:11pm 13.9 7.1 13.0 94 0.5 S 41 59 22 32 1019.9 1019.9 0.4
25/03:00pm 13.9 6.6 12.8 93 0.6 S 43 57 23 31 1019.9 1019.9 0.4

Other formats

Comma delimited format used in spreadsheet applications
http://www.bom.gov.au/fwo/IDN60801/IDN60801.94938.axf

JavaScript Object Notation format (JSON) in row-major order
http://www.bom.gov.au/fwo/IDN60801/IDN60801.94938.json

Data quality

Most of these data are generated automatically and are frequently updated. Quality checks on data are not normally performed. It is possible for incorrect values to appear. Refer to information at About Latest Weather Observations and please check the disclaimer before using these data.